Bhakkar Weather



Bhakkar's Current Weather

Temprature 15.76o overcast clouds

overcast clouds

Rain: 0 %

Min Temprature15.76o
Max Temprature15.76o
Humidity42
Wind Speed4.14 m/h
Sun Rise07:05:38
Sun Set17:12:55
Current Time: 12-Dec-2019 01:30:23
Lat/Lon: 31.63, 71.07




Bhakkar's Geo Location



Bhakkar's Weather Forecast

Time Overall Temp Min Temp Max Temp Humidity Wind Speed Rain
12-Dec-2019 (Thu)
02:00:00 overcast clouds 15.760 15.760 15.760 42 4.14 m/h 0 %
05:00:00 overcast clouds 14.480 14.480 14.480 47 2.27 m/h 0 %
08:00:00 overcast clouds 15.210 15.210 15.210 45 2.65 m/h 0 %
11:00:00 overcast clouds 18.060 18.060 18.060 36 1.28 m/h 0 %
14:00:00 light rain 16.990 16.990 16.990 45 3.89 m/h 6 %
17:00:00 light rain 13.700 13.700 13.700 68 1.44 m/h 69 %
20:00:00 light rain 14.040 14.040 14.040 64 1.52 m/h 13 %
23:00:00 broken clouds 12.300 12.300 12.300 71 2.17 m/h 0 %
13-Dec-2019 (Fri)
02:00:00 broken clouds 12.430 12.430 12.430 67 3.04 m/h 0 %
05:00:00 broken clouds 11.210 11.210 11.210 74 2.42 m/h 0 %
08:00:00 few clouds 11.230 11.230 11.230 75 1.9 m/h 0 %
11:00:00 few clouds 16.210 16.210 16.210 51 2.01 m/h 0 %
14:00:00 clear sky 18.740 18.740 18.740 40 1.24 m/h 0 %
17:00:00 clear sky 16.320 16.320 16.320 46 0.78 m/h 0 %
20:00:00 clear sky 14.650 14.650 14.650 53 3.23 m/h 0 %
23:00:00 clear sky 13.340 13.340 13.340 59 2.71 m/h 0 %
14-Dec-2019 (Sat)
02:00:00 clear sky 12.120 12.120 12.120 67 2.17 m/h 0 %
05:00:00 clear sky 10.070 10.070 10.070 78 0.77 m/h 0 %
08:00:00 clear sky 12.260 12.260 12.260 69 1.51 m/h 0 %
11:00:00 clear sky 17.320 17.320 17.320 49 1.26 m/h 0 %
14:00:00 scattered clouds 19.010 19.010 19.010 42 1.9 m/h 0 %
17:00:00 broken clouds 18.140 18.140 18.140 43 1.45 m/h 0 %
20:00:00 overcast clouds 14.450 14.450 14.450 55 1.07 m/h 0 %
23:00:00 overcast clouds 13.430 13.430 13.430 61 1.62 m/h 0 %
15-Dec-2019 (Sun)
02:00:00 overcast clouds 13.190 13.190 13.190 62 2.35 m/h 0 %
05:00:00 broken clouds 11.140 11.140 11.140 70 1.49 m/h 0 %
08:00:00 clear sky 12.540 12.540 12.540 64 1.61 m/h 0 %
11:00:00 clear sky 18.030 18.030 18.030 44 1.87 m/h 0 %
14:00:00 clear sky 20.180 20.180 20.180 32 2.65 m/h 0 %
17:00:00 clear sky 17.840 17.840 17.840 34 2.3 m/h 0 %
20:00:00 clear sky 14.850 14.850 14.850 43 2.36 m/h 0 %
23:00:00 clear sky 12.490 12.490 12.490 51 1.3 m/h 0 %
16-Dec-2019 (Mon)
02:00:00 clear sky 10.800 10.800 10.800 58 0.61 m/h 0 %
05:00:00 clear sky 10.450 10.450 10.450 58 1.37 m/h 0 %
08:00:00 clear sky 11.860 11.860 11.860 52 1.11 m/h 0 %
11:00:00 clear sky 18.950 18.950 18.950 31 2 m/h 0 %
14:00:00 clear sky 21.110 21.110 21.110 21 3.43 m/h 0 %
17:00:00 clear sky 18.200 18.200 18.200 22 2.94 m/h 0 %
20:00:00 clear sky 14.810 14.810 14.810 27 2.82 m/h 0 %
23:00:00 clear sky 12.660 12.660 12.660 33 1.68 m/h 0 %


Bhakkar's Tourist Spots

Historical Places in Bhakkar

Famous Cities (61)